Time;durP1;ratioP1;P1;durP2;ratioP2;P2;SDS_P1;SDS_P2;PMS_P1;PMS_P2;Temp;Humidity;BMP_temperature;BMP_pressure;BME280_temperature;BME280_humidity;BME280_pressure;Samples;Min_cycle;Max_cycle;Signal;HPM_P1;HPM_P2
2023/08/16 00:01:30;;;;;;;;;;;13.90;99.90;;;;;;5111084;28;19918;-64
2023/08/16 00:03:57;;;;;;;;;;;14.10;99.90;;;;;;5102857;28;19959;-65
2023/08/16 00:06:23;;;;;;;;;;;14.20;99.90;;;;;;5100411;28;19927;-70
2023/08/16 00:08:53;;;;;;;;;;;14.30;99.90;;;;;;5093817;28;19916;-69
2023/08/16 00:11:19;;;;;;;;;;;14.40;99.90;;;;;;5099867;28;19952;-62
2023/08/16 00:13:46;;;;;;;;;;;14.50;99.90;;;;;;5109598;28;19911;-68
2023/08/16 00:16:12;;;;;;;;;;;14.60;99.90;;;;;;5113195;28;19940;-65
2023/08/16 00:18:40;;;;;;;;;;;14.70;99.90;;;;;;5113309;28;20245;-64
2023/08/16 00:21:06;;;;;;;;;;;14.70;99.90;;;;;;5104094;28;19927;-68
2023/08/16 00:23:33;;;;;;;;;;;14.80;99.90;;;;;;5109851;28;20314;-65
2023/08/16 00:25:59;;;;;;;;;;;14.80;99.90;;;;;;5105284;28;19916;-66
2023/08/16 00:28:27;;;;;;;;;;;14.80;99.90;;;;;;5109678;28;19944;-71
2023/08/16 00:30:53;;;;;;;;;;;14.90;99.90;;;;;;5105624;28;19968;-63
2023/08/16 00:33:21;;;;;;;;;;;14.90;99.90;;;;;;5104464;28;20276;-66
2023/08/16 00:35:48;;;;;;;;;;;14.90;99.90;;;;;;5111995;28;20374;-66
2023/08/16 00:38:14;;;;;;;;;;;14.90;99.90;;;;;;5112621;28;19915;-67
2023/08/16 00:40:41;;;;;;;;;;;14.80;99.90;;;;;;5112963;28;19915;-64
2023/08/16 00:43:07;;;;;;;;;;;14.80;99.90;;;;;;5093143;28;19920;-63
2023/08/16 00:45:34;;;;;;;;;;;14.70;99.90;;;;;;5092991;28;19993;-67
2023/08/16 00:48:01;;;;;;;;;;;14.70;99.90;;;;;;5092792;28;19915;-60
2023/08/16 00:50:27;;;;;;;;;;;14.60;99.90;;;;;;5104919;28;19993;-66
2023/08/16 00:52:58;;;;;;;;;;;14.70;99.90;;;;;;5109470;28;20320;-65
2023/08/16 00:55:24;;;;;;;;;;;14.60;99.90;;;;;;5113214;28;19908;-67
2023/08/16 00:57:51;;;;;;;;;;;14.70;99.90;;;;;;5104151;28;20008;-65
2023/08/16 01:00:17;;;;;;;;;;;14.70;99.90;;;;;;5078039;28;19908;-69
2023/08/16 01:02:44;;;;;;;;;;;14.80;99.90;;;;;;5107693;28;19980;-67
2023/08/16 01:05:11;;;;;;;;;;;14.80;99.90;;;;;;5112226;28;19916;-68
2023/08/16 01:07:37;;;;;;;;;;;14.90;99.90;;;;;;5094202;28;20276;-65
2023/08/16 01:10:04;;;;;;;;;;;14.90;99.90;;;;;;5112648;28;20011;-67
2023/08/16 01:12:31;;;;;;;;;;;15.00;99.90;;;;;;5111225;28;19955;-65
2023/08/16 01:15:10;;;;;;;;;;;15.00;99.90;;;;;;5107726;28;19918;-63
2023/08/16 01:17:37;;;;;;;;;;;15.30;99.90;;;;;;5112063;28;19912;-62
2023/08/16 01:20:07;;;;;;;;;;;15.70;99.90;;;;;;5112383;28;20282;-63
2023/08/16 01:22:43;;;;;;;;;;;16.00;99.90;;;;;;5110384;28;19965;-66
2023/08/16 01:25:12;;;;;;;;;;;16.20;99.90;;;;;;5111698;28;20257;-69
2023/08/16 01:27:39;;;;;;;;;;;16.60;99.90;;;;;;5112018;28;20275;-69
2023/08/16 01:30:06;;;;;;;;;;;16.80;99.90;;;;;;5110812;28;19916;-66
2023/08/16 01:32:33;;;;;;;;;;;16.90;99.90;;;;;;5099286;28;19908;-69
2023/08/16 01:34:59;;;;;;;;;;;17.10;99.90;;;;;;5111721;28;19958;-64
2023/08/16 01:37:26;;;;;;;;;;;17.30;99.90;;;;;;5112104;28;19911;-65
2023/08/16 01:39:53;;;;;;;;;;;17.40;99.90;;;;;;5112468;28;20032;-72
2023/08/16 01:42:20;;;;;;;;;;;17.30;99.90;;;;;;5095697;28;19912;-66
2023/08/16 01:44:49;;;;;;;;;;;17.10;99.90;;;;;;5091795;28;19923;-64
2023/08/16 01:47:16;;;;;;;;;;;17.10;99.90;;;;;;5109489;28;20360;-66
2023/08/16 01:49:43;;;;;;;;;;;17.00;99.90;;;;;;5096595;28;19920;-63
2023/08/16 01:52:10;;;;;;;;;;;16.90;99.90;;;;;;5098993;28;19919;-72
2023/08/16 01:54:36;;;;;;;;;;;16.80;99.90;;;;;;5091195;28;20284;-64
2023/08/16 01:57:03;;;;;;;;;;;16.70;99.90;;;;;;5108184;28;19908;-65
2023/08/16 01:59:30;;;;;;;;;;;16.80;99.90;;;;;;5111934;28;20006;-64
2023/08/16 02:01:56;;;;;;;;;;;17.00;99.90;;;;;;5105920;28;19972;-63
2023/08/16 02:04:23;;;;;;;;;;;17.10;99.90;;;;;;5111876;28;19914;-67
2023/08/16 02:06:49;;;;;;;;;;;17.10;99.90;;;;;;5112268;28;19970;-68
2023/08/16 02:09:18;;;;;;;;;;;17.10;99.90;;;;;;5110976;28;19926;-68
2023/08/16 02:11:45;;;;;;;;;;;17.10;99.90;;;;;;5104465;28;19919;-71
2023/08/16 02:14:11;;;;;;;;;;;17.00;99.90;;;;;;5111711;28;19908;-69
2023/08/16 02:16:38;;;;;;;;;;;17.10;99.90;;;;;;5112648;28;19951;-66
2023/08/16 02:19:05;;;;;;;;;;;17.10;99.90;;;;;;5115306;28;20034;-68
2023/08/16 02:21:31;;;;;;;;;;;17.20;99.90;;;;;;5114361;28;19912;-69
2023/08/16 02:23:58;;;;;;;;;;;17.30;99.90;;;;;;5115803;28;19931;-63
2023/08/16 02:26:25;;;;;;;;;;;17.20;99.90;;;;;;5116126;28;19915;-68
2023/08/16 02:28:51;;;;;;;;;;;17.10;99.90;;;;;;5103053;28;19920;-71
2023/08/16 02:31:18;;;;;;;;;;;17.10;99.90;;;;;;5100555;28;19919;-70
2023/08/16 02:33:45;;;;;;;;;;;17.30;99.90;;;;;;5098827;28;19916;-68
2023/08/16 02:36:11;;;;;;;;;;;17.60;99.90;;;;;;5100449;28;19908;-71
2023/08/16 02:38:38;;;;;;;;;;;17.80;99.90;;;;;;5114855;28;20380;-72
2023/08/16 02:41:05;;;;;;;;;;;18.00;99.90;;;;;;5107662;28;19920;-69
2023/08/16 02:43:31;;;;;;;;;;;18.30;99.90;;;;;;5115370;28;19916;-72
2023/08/16 02:45:58;;;;;;;;;;;18.80;99.90;;;;;;5115741;28;20353;-64
2023/08/16 02:48:25;;;;;;;;;;;19.10;99.90;;;;;;5101708;28;19915;-69
2023/08/16 02:50:51;;;;;;;;;;;18.90;99.90;;;;;;5099029;28;20399;-64
2023/08/16 02:53:18;;;;;;;;;;;19.40;99.90;;;;;;5109757;28;19912;-71
2023/08/16 02:55:44;;;;;;;;;;;20.30;99.90;;;;;;5095980;28;20376;-67
2023/08/16 02:58:11;;;;;;;;;;;21.40;99.00;;;;;;5095085;28;19919;-64
2023/08/16 03:00:38;;;;;;;;;;;23.10;96.10;;;;;;5094717;28;20424;-66
2023/08/16 03:03:06;;;;;;;;;;;23.70;93.40;;;;;;5107488;28;19999;-69
2023/08/16 03:05:32;;;;;;;;;;;23.30;93.30;;;;;;5114496;28;19915;-71
2023/08/16 03:07:59;;;;;;;;;;;22.50;93.40;;;;;;5112859;28;19969;-62
2023/08/16 03:10:25;;;;;;;;;;;21.90;94.80;;;;;;5094658;28;19920;-71
2023/08/16 03:12:52;;;;;;;;;;;22.10;95.30;;;;;;5094251;28;19908;-72
2023/08/16 03:15:19;;;;;;;;;;;23.80;94.70;;;;;;5098004;28;19915;-69
2023/08/16 03:17:45;;;;;;;;;;;25.50;91.50;;;;;;5114924;28;19963;-63
2023/08/16 03:20:12;;;;;;;;;;;25.80;90.10;;;;;;5114055;28;20349;-65
2023/08/16 03:22:39;;;;;;;;;;;26.10;90.30;;;;;;5079773;28;20038;-66
2023/08/16 03:25:06;;;;;;;;;;;27.70;89.50;;;;;;5105624;28;20279;-71
2023/08/16 03:27:32;;;;;;;;;;;29.20;83.40;;;;;;5114078;28;20265;-63
2023/08/16 03:29:59;;;;;;;;;;;29.30;79.80;;;;;;5113509;28;20292;-72
2023/08/16 03:32:25;;;;;;;;;;;30.40;78.40;;;;;;5108742;28;19911;-70
2023/08/16 03:34:52;;;;;;;;;;;31.10;74.00;;;;;;5114704;28;20052;-71
2023/08/16 03:37:19;;;;;;;;;;;32.30;73.10;;;;;;5113777;28;19915;-65
2023/08/16 03:39:45;;;;;;;;;;;32.70;69.10;;;;;;5114309;28;19912;-67
2023/08/16 03:42:12;;;;;;;;;;;32.80;68.00;;;;;;5111410;28;20045;-71
2023/08/16 03:44:39;;;;;;;;;;;33.30;66.00;;;;;;5114243;28;19968;-71
2023/08/16 03:47:06;;;;;;;;;;;33.20;65.80;;;;;;5114596;28;20232;-70
2023/08/16 03:49:32;;;;;;;;;;;33.30;64.60;;;;;;5113045;28;20457;-72
2023/08/16 03:51:59;;;;;;;;;;;32.30;65.80;;;;;;5111895;28;19965;-72
2023/08/16 03:54:26;;;;;;;;;;;30.70;68.00;;;;;;5114058;28;19953;-73
2023/08/16 03:56:52;;;;;;;;;;;28.80;69.60;;;;;;5113687;28;19908;-66
2023/08/16 03:59:19;;;;;;;;;;;27.30;71.70;;;;;;5113908;28;20276;-71
2023/08/16 04:01:45;;;;;;;;;;;26.20;74.00;;;;;;5107336;28;19918;-71
2023/08/16 04:04:12;;;;;;;;;;;25.00;76.20;;;;;;5112918;28;19914;-72
2023/08/16 04:06:39;;;;;;;;;;;24.10;79.10;;;;;;5113952;28;19914;-68
2023/08/16 04:09:06;;;;;;;;;;;23.40;82.20;;;;;;5113888;28;20322;-66
2023/08/16 04:11:33;;;;;;;;;;;22.50;83.30;;;;;;5113625;28;19908;-65
2023/08/16 04:13:59;;;;;;;;;;;21.80;86.70;;;;;;5094428;28;19916;-68
2023/08/16 04:16:26;;;;;;;;;;;21.20;88.40;;;;;;5093521;28;19943;-68
2023/08/16 04:18:53;;;;;;;;;;;20.80;90.00;;;;;;5109351;28;20874;-68
2023/08/16 04:21:20;;;;;;;;;;;20.40;90.70;;;;;;5112396;28;19907;-69
2023/08/16 04:23:46;;;;;;;;;;;19.90;91.70;;;;;;5112501;28;19908;-71
2023/08/16 04:26:13;;;;;;;;;;;19.70;93.00;;;;;;5104101;28;19912;-64
2023/08/16 04:28:40;;;;;;;;;;;19.70;94.30;;;;;;5113657;28;19923;-71
2023/08/16 04:31:06;;;;;;;;;;;20.70;92.90;;;;;;5113796;28;19915;-71
2023/08/16 04:33:33;;;;;;;;;;;21.10;91.90;;;;;;5112298;28;20338;-73
2023/08/16 04:35:59;;;;;;;;;;;21.70;91.80;;;;;;5112845;28;19919;-69
2023/08/16 04:38:26;;;;;;;;;;;23.50;90.20;;;;;;5104964;28;19974;-64
2023/08/16 04:40:53;;;;;;;;;;;25.60;84.20;;;;;;5111960;28;19914;-72
2023/08/16 04:43:19;;;;;;;;;;;27.40;79.10;;;;;;5111814;28;19923;-69
2023/08/16 04:45:46;;;;;;;;;;;28.00;75.80;;;;;;5102399;28;19920;-71
2023/08/16 04:48:13;;;;;;;;;;;27.00;76.50;;;;;;5113031;28;19908;-73
2023/08/16 04:50:40;;;;;;;;;;;26.30;79.10;;;;;;5113407;28;19927;-71
2023/08/16 04:53:07;;;;;;;;;;;25.60;79.90;;;;;;5111059;28;19916;-73
2023/08/16 04:55:33;;;;;;;;;;;24.50;81.90;;;;;;5112213;28;19918;-71
2023/08/16 04:58:00;;;;;;;;;;;23.70;84.60;;;;;;5113193;28;19916;-67
2023/08/16 05:00:27;;;;;;;;;;;23.10;86.20;;;;;;5113042;28;19907;-68
2023/08/16 05:02:53;;;;;;;;;;;22.40;88.20;;;;;;5111975;28;19919;-64
2023/08/16 05:05:20;;;;;;;;;;;21.80;90.10;;;;;;5110914;28;19942;-68
2023/08/16 05:07:46;;;;;;;;;;;21.00;91.10;;;;;;5112290;28;19912;-62
2023/08/16 05:10:14;;;;;;;;;;;20.20;91.80;;;;;;5112746;28;20375;-63
2023/08/16 05:12:40;;;;;;;;;;;19.60;92.90;;;;;;5104011;28;19938;-69
2023/08/16 05:15:07;;;;;;;;;;;19.10;94.20;;;;;;5093996;28;19915;-64
2023/08/16 05:17:34;;;;;;;;;;;18.80;95.20;;;;;;5111991;28;19986;-66
2023/08/16 05:20:01;;;;;;;;;;;20.00;95.20;;;;;;5112092;28;20439;-68
2023/08/16 05:22:27;;;;;;;;;;;21.70;92.20;;;;;;5100131;28;20018;-73
2023/08/16 05:24:54;;;;;;;;;;;23.60;90.90;;;;;;5105997;28;19912;-71
2023/08/16 05:27:20;;;;;;;;;;;25.30;84.80;;;;;;5112013;28;19953;-69
2023/08/16 05:29:47;;;;;;;;;;;25.80;81.70;;;;;;5103921;28;19916;-68
2023/08/16 05:32:14;;;;;;;;;;;26.70;82.20;;;;;;5100913;28;19912;-71
2023/08/16 05:34:40;;;;;;;;;;;27.90;78.10;;;;;;5109510;28;19907;-71
2023/08/16 05:37:09;;;;;;;;;;;28.50;75.70;;;;;;5111846;28;19986;-69
2023/08/16 05:39:35;;;;;;;;;;;29.40;75.30;;;;;;5112252;28;19915;-70
2023/08/16 05:42:02;;;;;;;;;;;30.50;72.30;;;;;;5096367;28;20358;-73
2023/08/16 05:44:29;;;;;;;;;;;30.70;71.60;;;;;;5106250;28;19927;-72
2023/08/16 05:46:55;;;;;;;;;;;30.70;70.80;;;;;;5108578;28;19922;-70
2023/08/16 05:49:22;;;;;;;;;;;31.50;68.80;;;;;;5108211;28;20261;-69
2023/08/16 05:51:49;;;;;;;;;;;31.40;69.00;;;;;;5114577;28;19942;-74
2023/08/16 05:54:15;;;;;;;;;;;30.50;68.90;;;;;;5116713;27;19911;-71
2023/08/16 05:56:42;;;;;;;;;;;28.30;72.10;;;;;;5114514;28;19958;-65
2023/08/16 05:59:09;;;;;;;;;;;27.70;74.20;;;;;;5101059;28;19920;-70
2023/08/16 06:01:35;;;;;;;;;;;28.30;72.90;;;;;;5131585;27;20042;-69
2023/08/16 06:04:02;;;;;;;;;;;28.10;73.30;;;;;;5103203;28;20348;-72
2023/08/16 06:06:29;;;;;;;;;;;27.60;74.90;;;;;;5115251;27;19922;-69
2023/08/16 06:08:55;;;;;;;;;;;27.50;74.20;;;;;;5097925;28;19912;-72
2023/08/16 06:11:22;;;;;;;;;;;26.50;76.00;;;;;;5115464;27;19968;-74
2023/08/16 06:13:48;;;;;;;;;;;26.20;76.60;;;;;;5117226;28;19912;-72
2023/08/16 06:16:16;;;;;;;;;;;25.90;77.10;;;;;;5103839;27;19912;-72
2023/08/16 06:18:43;;;;;;;;;;;24.90;78.70;;;;;;5109036;28;20368;-66
2023/08/16 06:21:11;;;;;;;;;;;23.80;80.60;;;;;;5115263;27;20002;-71
2023/08/16 06:23:40;;;;;;;;;;;22.40;84.80;;;;;;5117169;28;19916;-70
2023/08/16 06:26:07;;;;;;;;;;;21.20;88.70;;;;;;5116933;27;20732;-67
2023/08/16 06:28:33;;;;;;;;;;;20.50;90.30;;;;;;5108544;28;19907;-72
2023/08/16 06:31:00;;;;;;;;;;;19.70;91.40;;;;;;5117136;28;19911;-71
2023/08/16 06:33:26;;;;;;;;;;;19.80;92.20;;;;;;5111787;28;19919;-72
2023/08/16 06:35:54;;;;;;;;;;;20.10;91.70;;;;;;5117158;28;20398;-76
2023/08/16 06:38:21;;;;;;;;;;;20.20;91.30;;;;;;5117296;28;19908;-74
2023/08/16 06:40:49;;;;;;;;;;;20.10;91.40;;;;;;5117997;28;19912;-71
2023/08/16 06:43:16;;;;;;;;;;;20.20;91.40;;;;;;5109215;28;19935;-74
2023/08/16 06:45:43;;;;;;;;;;;20.30;92.30;;;;;;5097729;28;19993;-74
2023/08/16 06:48:09;;;;;;;;;;;20.70;91.70;;;;;;5111849;28;19943;-73
2023/08/16 06:50:36;;;;;;;;;;;20.70;91.40;;;;;;5117183;28;20404;-73
2023/08/16 06:53:03;;;;;;;;;;;20.50;91.10;;;;;;5117540;28;19943;-70
2023/08/16 06:55:30;;;;;;;;;;;20.00;91.90;;;;;;5102512;28;20276;-72
2023/08/16 06:57:57;;;;;;;;;;;19.60;92.60;;;;;;5111376;28;19911;-69
2023/08/16 07:00:24;;;;;;;;;;;19.20;93.40;;;;;;5117735;28;19912;-70
2023/08/16 07:02:50;;;;;;;;;;;18.40;94.60;;;;;;5096957;28;20464;-68
2023/08/16 07:05:17;;;;;;;;;;;17.70;95.90;;;;;;5114769;28;19912;-64
2023/08/16 07:07:44;;;;;;;;;;;17.20;97.40;;;;;;5114515;28;19919;-73
2023/08/16 07:10:10;;;;;;;;;;;16.80;98.60;;;;;;5113565;28;19924;-69
2023/08/16 07:12:37;;;;;;;;;;;16.50;99.50;;;;;;5107639;28;19916;-69
2023/08/16 07:15:04;;;;;;;;;;;16.40;99.90;;;;;;5111140;28;20283;-73
2023/08/16 07:17:30;;;;;;;;;;;16.20;99.90;;;;;;5113792;28;19957;-71
2023/08/16 07:19:57;;;;;;;;;;;16.00;99.90;;;;;;5113472;28;20380;-72
2023/08/16 07:22:27;;;;;;;;;;;15.90;99.90;;;;;;5106131;28;19919;-70
2023/08/16 07:24:54;;;;;;;;;;;15.80;99.90;;;;;;5075993;28;20002;-71
2023/08/16 07:27:20;;;;;;;;;;;15.80;99.90;;;;;;5102488;28;19908;-71
2023/08/16 07:29:47;;;;;;;;;;;15.70;99.90;;;;;;5103473;28;20324;-66
2023/08/16 07:32:14;;;;;;;;;;;15.60;99.90;;;;;;5098579;28;19959;-69
2023/08/16 07:34:42;;;;;;;;;;;15.50;99.90;;;;;;5114698;28;20340;-66
2023/08/16 07:37:08;;;;;;;;;;;15.30;99.90;;;;;;5093801;28;20006;-71
2023/08/16 07:39:35;;;;;;;;;;;15.30;99.90;;;;;;5110494;28;20391;-67
2023/08/16 07:42:01;;;;;;;;;;;15.20;99.90;;;;;;5108938;28;19936;-70
2023/08/16 07:44:28;;;;;;;;;;;15.10;99.90;;;;;;5103904;27;20341;-70
2023/08/16 07:46:55;;;;;;;;;;;15.10;99.90;;;;;;5111754;28;19908;-65
2023/08/16 07:49:21;;;;;;;;;;;15.10;99.90;;;;;;5113750;28;19920;-67
2023/08/16 07:51:48;;;;;;;;;;;15.00;99.90;;;;;;5112309;27;19927;-67
2023/08/16 07:54:15;;;;;;;;;;;15.00;99.90;;;;;;5112760;28;19908;-74
2023/08/16 07:56:41;;;;;;;;;;;14.80;99.90;;;;;;5107400;27;19919;-63
2023/08/16 07:59:08;;;;;;;;;;;14.90;99.90;;;;;;5104526;28;19936;-73
2023/08/16 08:01:35;;;;;;;;;;;14.70;99.90;;;;;;5111133;28;20053;-72
2023/08/16 08:04:01;;;;;;;;;;;14.70;99.90;;;;;;5112973;28;19916;-68
2023/08/16 08:06:28;;;;;;;;;;;14.60;99.90;;;;;;5111463;27;19912;-66
2023/08/16 08:08:55;;;;;;;;;;;14.60;99.90;;;;;;5093032;28;19916;-66
2023/08/16 08:11:21;;;;;;;;;;;14.50;99.90;;;;;;5108109;28;19916;-67
2023/08/16 08:13:48;;;;;;;;;;;14.50;99.90;;;;;;5112173;28;20369;-68
2023/08/16 08:16:15;;;;;;;;;;;14.50;99.90;;;;;;5110772;28;19957;-72
2023/08/16 08:18:41;;;;;;;;;;;14.50;99.90;;;;;;5097639;28;19965;-64
2023/08/16 08:21:09;;;;;;;;;;;14.50;99.90;;;;;;5111910;27;19947;-67
2023/08/16 08:23:36;;;;;;;;;;;14.40;99.90;;;;;;5103191;28;19912;-70
2023/08/16 08:26:02;;;;;;;;;;;14.50;99.90;;;;;;5103416;27;19916;-65
2023/08/16 08:28:29;;;;;;;;;;;14.50;99.90;;;;;;5097954;28;19918;-64
2023/08/16 08:30:56;;;;;;;;;;;14.40;99.90;;;;;;5086173;28;19915;-66
2023/08/16 08:33:22;;;;;;;;;;;14.40;99.90;;;;;;5106859;28;19926;-69
2023/08/16 08:35:50;;;;;;;;;;;14.40;99.90;;;;;;5105715;27;19916;-66
2023/08/16 08:38:16;;;;;;;;;;;14.40;99.90;;;;;;5095923;28;19908;-70
2023/08/16 08:40:43;;;;;;;;;;;14.30;99.90;;;;;;5109056;28;19915;-75
2023/08/16 08:43:11;;;;;;;;;;;14.30;99.90;;;;;;5109799;28;19916;-74
2023/08/16 08:45:39;;;;;;;;;;;14.20;99.90;;;;;;5103181;28;19941;-72
2023/08/16 08:48:09;;;;;;;;;;;14.20;99.90;;;;;;5092466;28;19959;-67
2023/08/16 08:50:38;;;;;;;;;;;14.20;99.90;;;;;;5099065;28;20379;-71
2023/08/16 08:53:04;;;;;;;;;;;14.10;99.90;;;;;;5113121;28;19908;-74
2023/08/16 08:55:37;;;;;;;;;;;14.10;99.90;;;;;;5112886;28;19912;-72
2023/08/16 08:58:04;;;;;;;;;;;14.00;99.90;;;;;;5113150;28;20371;-73
2023/08/16 09:00:34;;;;;;;;;;;14.00;99.90;;;;;;5110943;28;19912;-73
2023/08/16 09:03:04;;;;;;;;;;;14.00;99.90;;;;;;5112199;28;19908;-73
2023/08/16 09:05:32;;;;;;;;;;;14.00;99.90;;;;;;5113229;28;19908;-76
2023/08/16 09:07:59;;;;;;;;;;;13.90;99.90;;;;;;5099524;28;19912;-72
2023/08/16 09:10:25;;;;;;;;;;;14.00;99.90;;;;;;5092272;28;20357;-73
2023/08/16 09:12:53;;;;;;;;;;;14.00;99.90;;;;;;5092539;28;19938;-73
2023/08/16 09:15:19;;;;;;;;;;;13.90;99.90;;;;;;5092495;28;19959;-73
2023/08/16 09:17:46;;;;;;;;;;;13.90;99.90;;;;;;5074883;28;20010;-72
2023/08/16 09:20:13;;;;;;;;;;;13.90;99.90;;;;;;5093667;28;20288;-74
2023/08/16 09:22:40;;;;;;;;;;;13.80;99.90;;;;;;5112211;28;19984;-73
2023/08/16 09:25:10;;;;;;;;;;;13.90;99.90;;;;;;5097279;27;19911;-74
2023/08/16 09:27:40;;;;;;;;;;;13.80;99.90;;;;;;5129423;27;19915;-74
2023/08/16 09:30:11;;;;;;;;;;;13.80;99.90;;;;;;5112260;27;19919;-73
2023/08/16 09:32:38;;;;;;;;;;;13.80;99.90;;;;;;5097900;28;20023;-72
2023/08/16 09:35:05;;;;;;;;;;;13.70;99.90;;;;;;5094287;28;19909;-73
2023/08/16 09:37:31;;;;;;;;;;;13.60;99.90;;;;;;5105340;28;19912;-74
2023/08/16 09:39:58;;;;;;;;;;;13.70;99.90;;;;;;5083761;28;19912;-73
2023/08/16 09:42:34;;;;;;;;;;;13.60;99.90;;;;;;5107103;28;20280;-66
2023/08/16 09:45:01;;;;;;;;;;;13.60;99.90;;;;;;5111960;28;19924;-72
2023/08/16 09:47:31;;;;;;;;;;;13.60;99.90;;;;;;5112231;28;19919;-73
2023/08/16 09:49:59;;;;;;;;;;;13.50;99.90;;;;;;5112013;28;19926;-66
2023/08/16 09:52:27;;;;;;;;;;;13.50;99.90;;;;;;5091917;28;20271;-73
2023/08/16 09:54:55;;;;;;;;;;;13.40;99.90;;;;;;5092213;28;19978;-75
2023/08/16 09:57:22;;;;;;;;;;;13.50;99.90;;;;;;5093854;28;19931;-75
2023/08/16 09:59:49;;;;;;;;;;;13.50;99.90;;;;;;5106060;28;19970;-74
2023/08/16 10:02:16;;;;;;;;;;;13.50;99.90;;;;;;5099048;28;19917;-74
2023/08/16 10:04:43;;;;;;;;;;;13.50;99.90;;;;;;5087639;28;19912;-73
2023/08/16 10:07:10;;;;;;;;;;;13.40;99.90;;;;;;5095961;28;19915;-72
2023/08/16 10:09:36;;;;;;;;;;;13.50;99.90;;;;;;5091637;28;20383;-71
2023/08/16 10:12:04;;;;;;;;;;;13.40;99.90;;;;;;5092957;28;19915;-69
2023/08/16 10:14:31;;;;;;;;;;;13.40;99.90;;;;;;5080183;28;20373;-70
2023/08/16 10:17:01;;;;;;;;;;;13.40;99.90;;;;;;5107554;28;19912;-69
2023/08/16 10:19:30;;;;;;;;;;;13.30;99.90;;;;;;5105930;28;19916;-69
2023/08/16 10:21:59;;;;;;;;;;;13.20;99.90;;;;;;5109622;28;19908;-72
2023/08/16 10:24:28;;;;;;;;;;;13.30;99.90;;;;;;5111940;28;19919;-71
2023/08/16 10:26:56;;;;;;;;;;;13.10;99.90;;;;;;5111421;28;19961;-70
2023/08/16 10:29:24;;;;;;;;;;;13.10;99.90;;;;;;5094121;28;19931;-70
2023/08/16 10:31:52;;;;;;;;;;;13.00;99.90;;;;;;5109937;28;20371;-73
2023/08/16 10:34:20;;;;;;;;;;;12.90;99.90;;;;;;5112165;28;19912;-73
2023/08/16 10:36:47;;;;;;;;;;;12.90;99.90;;;;;;5112372;28;19912;-69
2023/08/16 10:39:24;;;;;;;;;;;12.90;99.90;;;;;;5095897;28;19912;-72
2023/08/16 10:41:51;;;;;;;;;;;12.80;99.90;;;;;;5113218;28;19907;-72
2023/08/16 10:44:26;;;;;;;;;;;12.90;99.90;;;;;;5115912;28;19971;-70
2023/08/16 10:46:53;;;;;;;;;;;12.80;99.90;;;;;;5115190;27;19923;-70
2023/08/16 10:49:20;;;;;;;;;;;12.80;99.90;;;;;;5114937;28;19922;-72
2023/08/16 10:51:47;;;;;;;;;;;12.70;99.90;;;;;;5115944;28;20427;-72
2023/08/16 10:54:15;;;;;;;;;;;12.70;99.90;;;;;;5103961;28;20530;-71
2023/08/16 10:56:47;;;;;;;;;;;12.70;99.90;;;;;;5102591;27;19912;-72
2023/08/16 10:59:15;;;;;;;;;;;12.60;99.90;;;;;;5094553;28;19912;-73
2023/08/16 11:01:46;;;;;;;;;;;12.60;99.90;;;;;;5104733;28;19916;-71
2023/08/16 11:04:12;;;;;;;;;;;12.60;99.90;;;;;;5100304;27;19911;-68
2023/08/16 11:06:39;;;;;;;;;;;12.60;99.90;;;;;;5105734;28;19930;-71
2023/08/16 11:09:07;;;;;;;;;;;12.60;99.90;;;;;;5104401;28;19916;-70
2023/08/16 11:11:34;;;;;;;;;;;12.50;99.90;;;;;;5112083;28;19912;-72
2023/08/16 11:14:00;;;;;;;;;;;12.50;99.90;;;;;;5100500;27;19912;-70
2023/08/16 11:16:27;;;;;;;;;;;12.50;99.90;;;;;;5097433;28;19916;-70
2023/08/16 11:18:59;;;;;;;;;;;12.60;99.90;;;;;;5099084;27;19911;-70
2023/08/16 11:21:26;;;;;;;;;;;12.50;99.90;;;;;;5114136;28;19930;-67
2023/08/16 11:23:58;;;;;;;;;;;12.50;99.90;;;;;;5095893;27;19920;-71
2023/08/16 11:26:24;;;;;;;;;;;12.50;99.90;;;;;;5094164;28;19912;-73
2023/08/16 11:28:51;;;;;;;;;;;12.40;99.90;;;;;;5098403;27;20276;-70
2023/08/16 11:31:18;;;;;;;;;;;12.40;99.90;;;;;;5114042;28;20375;-72
2023/08/16 11:33:44;;;;;;;;;;;12.40;99.90;;;;;;5111960;28;20049;-74
2023/08/16 11:36:12;;;;;;;;;;;12.30;99.90;;;;;;5099004;28;19912;-71
2023/08/16 11:38:39;;;;;;;;;;;12.20;99.90;;;;;;5095397;28;20353;-72
2023/08/16 11:41:06;;;;;;;;;;;12.10;99.90;;;;;;5078708;28;20121;-67
2023/08/16 11:43:34;;;;;;;;;;;12.20;99.90;;;;;;5093850;27;19924;-70
2023/08/16 11:46:02;;;;;;;;;;;12.20;99.90;;;;;;5100427;28;19916;-70
2023/08/16 11:48:29;;;;;;;;;;;12.00;99.90;;;;;;5093431;28;19914;-73
2023/08/16 11:50:57;;;;;;;;;;;12.00;99.90;;;;;;5113251;27;20368;-71
2023/08/16 11:53:31;;;;;;;;;;;11.90;99.90;;;;;;5093147;28;19912;-68
2023/08/16 11:55:59;;;;;;;;;;;11.90;99.90;;;;;;5100700;28;20376;-67
2023/08/16 11:58:26;;;;;;;;;;;11.90;99.90;;;;;;5093019;28;19912;-69
2023/08/16 12:00:52;;;;;;;;;;;11.80;99.90;;;;;;5108382;28;19981;-69
2023/08/16 12:03:19;;;;;;;;;;;11.80;99.90;;;;;;5109490;28;19908;-71
2023/08/16 12:05:49;;;;;;;;;;;11.80;99.90;;;;;;5106672;28;19938;-74
2023/08/16 12:08:22;;;;;;;;;;;11.70;99.90;;;;;;5113869;28;19908;-68
2023/08/16 12:10:55;;;;;;;;;;;11.70;99.90;;;;;;5113583;28;20414;-69
2023/08/16 12:13:22;;;;;;;;;;;11.70;99.90;;;;;;5113924;28;19908;-69
2023/08/16 12:15:49;;;;;;;;;;;11.70;99.90;;;;;;5114406;28;19980;-70
2023/08/16 12:18:16;;;;;;;;;;;11.70;99.90;;;;;;5114364;28;19914;-68
2023/08/16 12:20:43;;;;;;;;;;;11.70;99.90;;;;;;5114471;28;20003;-69
2023/08/16 12:23:10;;;;;;;;;;;11.70;99.90;;;;;;5097441;28;20259;-68
2023/08/16 12:25:37;;;;;;;;;;;11.60;99.90;;;;;;5103729;28;20268;-68
2023/08/16 12:28:04;;;;;;;;;;;11.60;99.90;;;;;;5113770;28;19915;-68
2023/08/16 12:30:30;;;;;;;;;;;11.60;99.90;;;;;;5107369;28;20356;-69
2023/08/16 12:32:57;;;;;;;;;;;11.60;99.90;;;;;;5113798;28;20555;-70
2023/08/16 12:35:24;;;;;;;;;;;11.50;99.90;;;;;;5094869;28;19908;-68
2023/08/16 12:37:51;;;;;;;;;;;11.50;99.90;;;;;;5110385;28;19912;-71
2023/08/16 12:40:17;;;;;;;;;;;11.40;99.90;;;;;;5114098;28;19953;-67
2023/08/16 12:42:44;;;;;;;;;;;11.50;99.90;;;;;;5113951;28;19916;-69
2023/08/16 12:45:11;;;;;;;;;;;11.40;99.90;;;;;;5096512;28;19920;-69
2023/08/16 12:47:38;;;;;;;;;;;11.40;99.90;;;;;;5093010;28;20006;-69
2023/08/16 12:50:04;;;;;;;;;;;11.30;99.90;;;;;;5092947;28;19924;-68
2023/08/16 12:52:31;;;;;;;;;;;11.30;99.90;;;;;;5093351;28;20345;-68
2023/08/16 12:54:58;;;;;;;;;;;11.20;99.90;;;;;;5093293;28;19961;-69
2023/08/16 12:57:24;;;;;;;;;;;11.30;99.90;;;;;;5093074;28;19908;-69
2023/08/16 12:59:53;;;;;;;;;;;11.30;99.90;;;;;;5075128;28;19951;-69
2023/08/16 13:02:19;;;;;;;;;;;11.20;99.90;;;;;;5092340;28;19920;-69
2023/08/16 13:04:46;;;;;;;;;;;11.20;99.90;;;;;;5104887;28;19937;-68
2023/08/16 13:07:13;;;;;;;;;;;11.20;99.90;;;;;;5113453;28;20314;-69
2023/08/16 13:09:40;;;;;;;;;;;11.10;99.90;;;;;;5095031;28;19912;-69
2023/08/16 13:12:07;;;;;;;;;;;11.10;99.90;;;;;;5113085;28;19908;-69
2023/08/16 13:14:36;;;;;;;;;;;11.10;99.90;;;;;;5102549;28;20382;-69
2023/08/16 13:17:08;;;;;;;;;;;11.00;99.90;;;;;;5098435;28;19912;-69
2023/08/16 13:19:34;;;;;;;;;;;11.00;99.90;;;;;;5103213;28;19956;-69
2023/08/16 13:22:01;;;;;;;;;;;11.00;99.90;;;;;;5109343;28;19947;-69
2023/08/16 13:24:28;;;;;;;;;;;11.10;99.90;;;;;;5094627;28;19916;-69
2023/08/16 13:26:54;;;;;;;;;;;11.10;99.90;;;;;;5097749;28;20017;-69
2023/08/16 13:29:21;;;;;;;;;;;11.10;99.90;;;;;;5092277;28;20425;-71
2023/08/16 13:31:47;;;;;;;;;;;11.10;99.90;;;;;;5097048;28;19916;-70
2023/08/16 13:34:14;;;;;;;;;;;11.00;99.90;;;;;;5113279;28;19908;-69
2023/08/16 13:36:41;;;;;;;;;;;11.00;99.90;;;;;;5096751;28;19919;-69
2023/08/16 13:39:08;;;;;;;;;;;11.00;99.90;;;;;;5092662;28;19908;-70
2023/08/16 13:41:34;;;;;;;;;;;11.00;99.90;;;;;;5092816;28;19909;-70
2023/08/16 13:44:01;;;;;;;;;;;11.00;99.90;;;;;;5092502;28;19951;-70
2023/08/16 13:46:31;;;;;;;;;;;10.90;99.90;;;;;;5111819;28;20010;-71
2023/08/16 13:48:57;;;;;;;;;;;10.90;99.90;;;;;;5112818;28;19911;-70
2023/08/16 13:51:24;;;;;;;;;;;10.90;99.90;;;;;;5103889;28;20357;-69
2023/08/16 13:53:51;;;;;;;;;;;10.90;99.90;;;;;;5096217;28;19916;-69
2023/08/16 13:56:18;;;;;;;;;;;10.80;99.90;;;;;;5092079;28;20273;-70
2023/08/16 13:58:44;;;;;;;;;;;10.80;99.90;;;;;;5106121;28;19957;-70
2023/08/16 14:01:11;;;;;;;;;;;10.80;99.90;;;;;;5113272;28;19908;-69
2023/08/16 14:03:38;;;;;;;;;;;10.80;99.90;;;;;;5112995;28;19908;-69
2023/08/16 14:06:05;;;;;;;;;;;10.70;99.90;;;;;;5112615;28;20340;-68
2023/08/16 14:08:31;;;;;;;;;;;10.70;99.90;;;;;;5092833;28;19976;-69
2023/08/16 14:11:01;;;;;;;;;;;10.70;99.90;;;;;;5092551;28;19922;-69
2023/08/16 14:13:28;;;;;;;;;;;10.60;99.90;;;;;;5103538;28;19916;-68
2023/08/16 14:15:55;;;;;;;;;;;10.70;99.90;;;;;;5116722;28;19908;-69